Time;durP1;ratioP1;P1;durP2;ratioP2;P2;SDS_P1;SDS_P2;PMS_P1;PMS_P2;Temp;Humidity;BMP_temperature;BMP_pressure;BME280_temperature;BME280_humidity;BME280_pressure;Samples;Min_cycle;Max_cycle;Signal;HPM_P1;HPM_P2
2021/01/13 00:00:56;;;;;;;;;;;;;;;9.69;47.56;101808.09;4967881;29;20384;-94
2021/01/13 01:34:19;;;;;;;;;;;;;;;8.38;58.46;101797.00;5177925;23;19934;-94
2021/01/13 01:39:35;;;;;;;;;;;;;;;8.63;58.55;101791.97;5010456;23;20013;-92
2021/01/13 01:42:00;;;;;;;;;;;;;;;8.68;58.89;101787.31;4949839;29;19919;-93
2021/01/13 01:44:33;;;;;;;;;;;;;;;8.84;57.56;101783.31;4950024;29;19922;-91
2021/01/13 01:47:05;;;;;;;;;;;;;;;8.86;57.11;101781.50;4949120;29;19926;-91
2021/01/13 01:49:31;;;;;;;;;;;;;;;9.03;55.86;101785.56;4949169;29;19940;-92
2021/01/13 06:40:19;;;;;;;;;;;;;;;9.45;48.47;101766.44;2261362;23;20007;31
2021/01/13 06:42:47;;;;;;;;;;;;;;;9.53;48.27;101756.28;4910181;23;20014;-93
2021/01/13 06:45:31;;;;;;;;;;;;;;;9.34;48.30;101750.50;4898296;29;20208;-93
2021/01/13 06:48:30;;;;;;;;;;;;;;;9.48;48.67;101752.84;5191800;23;20008;-92
2021/01/13 06:54:05;;;;;;;;;;;;;;;9.55;48.22;101753.53;4964177;23;20382;-92
2021/01/13 07:02:02;;;;;;;;;;;;;;;9.62;48.37;101752.44;5286788;23;19950;-93
2021/01/13 07:04:28;;;;;;;;;;;;;;;9.29;48.66;101757.00;4932168;23;19974;-91
2021/01/13 07:07:07;;;;;;;;;;;;;;;9.99;47.61;101745.03;4904590;29;20285;-90
2021/01/13 07:09:37;;;;;;;;;;;;;;;9.34;48.83;101749.63;4917830;29;20521;-88
2021/01/13 07:34:41;;;;;;;;;;;;;;;8.95;50.05;101750.69;2142971;23;20215;-90
2021/01/13 07:37:07;;;;;;;;;;;;;;;9.34;48.80;101744.22;4881915;29;19928;-90
2021/01/13 07:39:51;;;;;;;;;;;;;;;9.42;48.32;101747.63;4881870;29;19992;-87
2021/01/13 07:42:36;;;;;;;;;;;;;;;9.54;48.52;101749.97;4865537;29;19954;-90
2021/01/13 07:45:12;;;;;;;;;;;;;;;9.22;48.35;101754.47;4883589;29;20302;-94
2021/01/13 07:47:37;;;;;;;;;;;;;;;9.41;48.91;101751.25;4885908;29;19920;-90
2021/01/13 07:52:58;;;;;;;;;;;;;;;9.55;47.98;101742.72;4946730;23;19926;-93
2021/01/13 07:55:24;;;;;;;;;;;;;;;8.95;48.47;101747.09;4939264;29;20292;-85
2021/01/13 07:58:03;;;;;;;;;;;;;;;9.52;47.82;101741.00;4947833;28;19926;-88
2021/01/13 08:00:28;;;;;;;;;;;;;;;9.74;47.48;101754.78;4944213;29;20381;-91
2021/01/13 08:05:58;;;;;;;;;;;;;;;9.69;47.25;101762.16;5059624;23;19927;-90
2021/01/13 08:08:44;;;;;;;;;;;;;;;10.06;47.01;101752.03;4940546;29;19978;-93
2021/01/13 08:14:31;;;;;;;;;;;;;;;10.23;46.76;101751.50;4968133;23;19974;-94
2021/01/13 08:17:37;;;;;;;;;;;;;;;9.35;48.71;101751.41;5030086;23;19926;-92
2021/01/13 08:20:22;;;;;;;;;;;;;;;9.35;48.77;101748.72;5166572;23;19934;-89
2021/01/13 08:25:25;;;;;;;;;;;;;;;9.90;48.33;101749.81;4955286;23;19926;-88
2021/01/13 08:28:00;;;;;;;;;;;;;;;10.03;48.11;101746.72;4928658;29;19923;-89
2021/01/13 08:30:29;;;;;;;;;;;;;;;9.19;49.78;101756.34;4949535;29;19942;-90
2021/01/13 08:32:56;;;;;;;;;;;;;;;9.18;49.41;101751.88;4940125;29;19945;-88
2021/01/13 08:35:31;;;;;;;;;;;;;;;9.80;48.60;101753.72;4927652;29;19986;-86
2021/01/13 08:38:07;;;;;;;;;;;;;;;10.03;47.63;101750.31;4925397;29;20373;-85
2021/01/13 08:40:43;;;;;;;;;;;;;;;9.31;49.72;101745.19;4944882;29;20377;-88
2021/01/13 08:43:15;;;;;;;;;;;;;;;9.35;49.36;101746.88;4946695;29;19926;-86
2021/01/13 08:45:48;;;;;;;;;;;;;;;8.97;50.16;101745.25;4941414;29;19925;-87
2021/01/13 08:48:18;;;;;;;;;;;;;;;9.43;49.61;101741.28;4939669;29;19958;-87
2021/01/13 08:51:05;;;;;;;;;;;;;;;9.62;49.05;101738.03;4945317;29;20317;-89
2021/01/13 08:53:31;;;;;;;;;;;;;;;9.12;49.35;101750.22;4967925;28;19917;-92
2021/01/13 08:56:00;;;;;;;;;;;;;;;9.46;49.12;101743.88;4955041;29;19978;-87
2021/01/13 08:58:32;;;;;;;;;;;;;;;9.93;48.17;101728.09;4934089;29;19926;-85
2021/01/13 09:01:02;;;;;;;;;;;;;;;9.86;48.08;101734.63;4917715;29;19970;-88
2021/01/13 09:03:34;;;;;;;;;;;;;;;9.62;48.79;101735.31;4917378;29;19925;-87
2021/01/13 09:06:17;;;;;;;;;;;;;;;10.14;47.78;101728.34;4935110;29;19919;-88
2021/01/13 09:08:44;;;;;;;;;;;;;;;9.93;48.42;101727.19;4901111;29;19923;-86
2021/01/13 09:11:10;;;;;;;;;;;;;;;9.99;47.75;101723.41;4937590;29;19925;-86
2021/01/13 09:13:38;;;;;;;;;;;;;;;10.00;47.91;101730.59;4922111;29;19918;-86
2021/01/13 09:16:21;;;;;;;;;;;;;;;10.25;47.33;101737.00;4922437;29;19966;-85
2021/01/13 09:18:53;;;;;;;;;;;;;;;10.00;47.77;101738.72;4922233;29;19926;-85
2021/01/13 09:21:21;;;;;;;;;;;;;;;10.49;46.49;101726.34;4922158;29;19947;-85
2021/01/13 09:23:53;;;;;;;;;;;;;;;10.03;47.36;101730.50;4921732;29;20305;-84
2021/01/13 09:26:22;;;;;;;;;;;;;;;10.36;46.79;101725.00;4955739;29;19930;-87
2021/01/13 09:28:57;;;;;;;;;;;;;;;10.23;47.41;101732.56;4923264;29;19922;-85
2021/01/13 09:31:22;;;;;;;;;;;;;;;9.96;48.02;101732.50;4936536;29;19923;-85
2021/01/13 09:33:47;;;;;;;;;;;;;;;10.48;47.24;101729.09;4929173;29;20488;-84
2021/01/13 09:36:13;;;;;;;;;;;;;;;10.29;47.47;101718.84;4929272;29;19925;-83
2021/01/13 09:38:50;;;;;;;;;;;;;;;10.23;48.10;101719.94;4937371;29;19922;-86
2021/01/13 09:41:25;;;;;;;;;;;;;;;11.23;46.12;101722.91;4939699;29;20338;-84
2021/01/13 09:44:07;;;;;;;;;;;;;;;10.23;48.11;101733.44;4958445;29;20427;-88
2021/01/13 09:46:49;;;;;;;;;;;;;;;10.56;47.27;101721.63;4942444;29;19929;-89
2021/01/13 09:49:17;;;;;;;;;;;;;;;10.62;48.26;101733.13;4948925;29;19922;-88
2021/01/13 09:51:45;;;;;;;;;;;;;;;10.38;48.26;101729.41;4932452;29;20380;-90
2021/01/13 09:54:26;;;;;;;;;;;;;;;10.74;48.07;101736.34;4963435;23;19927;-92
2021/01/13 10:07:34;;;;;;;;;;;;;;;10.26;47.96;101733.34;4921558;29;19927;-93
2021/01/13 10:13:14;;;;;;;;;;;;;;;10.32;47.32;101739.50;4906860;29;20009;-92
2021/01/13 10:15:39;;;;;;;;;;;;;;;10.84;47.25;101726.09;4923615;29;19957;-91
2021/01/13 10:18:06;;;;;;;;;;;;;;;10.75;47.17;101730.88;4923403;29;20386;-88
2021/01/13 10:20:35;;;;;;;;;;;;;;;10.96;46.90;101731.97;4925225;29;20124;-92
2021/01/13 10:23:01;;;;;;;;;;;;;;;10.66;47.24;101727.59;4903442;29;19930;-89
2021/01/13 10:25:50;;;;;;;;;;;;;;;11.11;46.98;101730.53;4920030;29;19919;-93
2021/01/13 10:28:51;;;;;;;;;;;;;;;10.79;46.51;101720.84;4957617;23;19943;-93
2021/01/13 10:31:28;;;;;;;;;;;;;;;11.02;46.10;101729.97;4880269;29;19928;-90
2021/01/13 10:33:57;;;;;;;;;;;;;;;11.38;45.51;101722.34;4914699;29;19918;-89
2021/01/13 10:36:29;;;;;;;;;;;;;;;11.31;45.78;101724.41;4922022;29;19950;-90
2021/01/13 10:38:54;;;;;;;;;;;;;;;12.29;44.09;101732.44;4922037;29;19923;-92
2021/01/13 10:41:57;;;;;;;;;;;;;;;12.00;44.44;101730.88;4925681;29;19977;-95
2021/01/13 10:44:30;;;;;;;;;;;;;;;12.03;43.36;101725.31;4923387;29;20432;-89
2021/01/13 10:46:58;;;;;;;;;;;;;;;12.29;43.08;101720.69;4923058;29;19974;-87
2021/01/13 10:49:52;;;;;;;;;;;;;;;;;;;;;
2021/01/13 10:55:52;;;;;;;;;;;;;;;12.70;41.08;101715.38;4980102;28;19911;-91
2021/01/13 10:58:25;;;;;;;;;;;;;;;13.56;39.68;101713.44;5015618;23;19927;-95
2021/01/13 11:01:02;;;;;;;;;;;;;;;13.42;39.06;101711.31;4929626;29;20281;-87
2021/01/13 11:03:32;;;;;;;;;;;;;;;12.67;40.95;101708.25;4941424;29;19918;-88
2021/01/13 11:05:57;;;;;;;;;;;;;;;13.54;39.33;101707.16;4938163;29;19919;-87
2021/01/13 11:08:36;;;;;;;;;;;;;;;13.60;38.86;101706.88;4940583;29;19922;-89
2021/01/13 11:11:07;;;;;;;;;;;;;;;13.74;38.69;101690.81;4942828;29;20357;-88
2021/01/13 11:13:43;;;;;;;;;;;;;;;13.09;40.23;101701.03;4940441;29;19921;-88
2021/01/13 11:16:08;;;;;;;;;;;;;;;13.16;39.88;101696.19;4939939;29;19919;-87
2021/01/13 11:18:36;;;;;;;;;;;;;;;14.38;38.02;101691.34;4956585;29;19914;-90
2021/01/13 11:21:13;;;;;;;;;;;;;;;14.18;38.65;101687.78;4939904;29;19919;-91
2021/01/13 11:23:44;;;;;;;;;;;;;;;13.45;39.26;101686.72;4940041;29;19925;-90
2021/01/13 11:26:10;;;;;;;;;;;;;;;12.43;40.57;101687.56;4939950;29;20385;-89
2021/01/13 11:28:40;;;;;;;;;;;;;;;12.73;41.24;101682.66;4940160;29;19930;-88
2021/01/13 11:31:06;;;;;;;;;;;;;;;12.87;41.42;101684.78;4941077;29;19925;-88
2021/01/13 11:33:31;;;;;;;;;;;;;;;11.86;42.80;101679.88;4919766;29;19918;-92
2021/01/13 11:35:56;;;;;;;;;;;;;;;11.66;43.53;101678.81;4937545;29;19925;-86
2021/01/13 11:38:21;;;;;;;;;;;;;;;11.49;43.66;101673.19;4938184;29;20332;-89
2021/01/13 11:41:25;;;;;;;;;;;;;;;11.32;44.54;101682.84;4922679;29;19926;-93
2021/01/13 11:44:10;;;;;;;;;;;;;;;11.12;44.52;101677.25;4900488;29;19926;-92
2021/01/13 11:47:05;;;;;;;;;;;;;;;10.93;45.14;101672.53;4922210;29;19943;-94
2021/01/13 11:49:39;;;;;;;;;;;;;;;11.57;43.59;101673.75;4914178;29;19925;-94
2021/01/13 11:52:08;;;;;;;;;;;;;;;12.28;42.39;101665.53;4921462;29;19925;-94
2021/01/13 12:05:36;;;;;;;;;;;;;;;11.95;41.06;101663.25;1231333;23;20207;-92
2021/01/13 12:08:06;;;;;;;;;;;;;;;12.17;41.42;101657.00;4920017;23;19931;-92
2021/01/13 12:13:54;;;;;;;;;;;;;;;13.57;39.03;101647.22;4879617;29;19926;-91
2021/01/13 12:16:19;;;;;;;;;;;;;;;13.39;39.35;101639.00;4851145;29;19929;-93
2021/01/13 12:18:47;;;;;;;;;;;;;;;14.15;38.20;101648.94;4901404;29;19919;-87
2021/01/13 12:21:34;;;;;;;;;;;;;;;13.14;38.37;101644.63;4974862;23;19919;-91
2021/01/13 12:41:22;;;;;;;;;;;;;;;10.76;42.93;101626.22;5059931;23;19927;-94
2021/01/13 12:43:52;;;;;;;;;;;;;;;11.25;42.55;101627.13;4908785;29;19928;-92
2021/01/13 12:46:24;;;;;;;;;;;;;;;10.59;44.12;101626.81;4897506;29;19928;-91
2021/01/13 12:51:17;;;;;;;;;;;;;;;9.86;44.49;101631.91;4978576;23;19934;-92
2021/01/13 12:56:27;;;;;;;;;;;;;;;10.22;44.99;101626.25;5275360;23;19911;-89
2021/01/13 12:59:05;;;;;;;;;;;;;;;10.58;44.29;101623.25;4969805;23;20013;-93
2021/01/13 13:01:49;;;;;;;;;;;;;;;10.70;44.18;101613.78;4936408;29;19919;-93
2021/01/13 13:04:15;;;;;;;;;;;;;;;10.35;45.32;101612.31;4924268;29;19919;-89
2021/01/13 13:06:51;;;;;;;;;;;;;;;10.68;44.99;101614.78;4923135;29;20006;-91
2021/01/13 13:09:48;;;;;;;;;;;;;;;10.54;44.45;101616.16;4936373;29;19967;-89
2021/01/13 13:17:37;;;;;;;;;;;;;;;;;;;;;
2021/01/13 13:25:57;;;;;;;;;;;;;;;10.54;43.96;101620.69;4967364;23;19930;-94
2021/01/13 13:31:47;;;;;;;;;;;;;;;10.56;44.22;101618.81;4888255;29;19959;-93
2021/01/13 13:34:46;;;;;;;;;;;;;;;10.60;43.64;101612.34;4925338;29;19915;-92
2021/01/13 13:37:12;;;;;;;;;;;;;;;10.32;44.63;101615.09;4924963;29;19919;-87
2021/01/13 13:39:37;;;;;;;;;;;;;;;10.39;43.82;101612.16;4916194;29;19922;-90
2021/01/13 13:42:02;;;;;;;;;;;;;;;10.40;43.26;101621.16;4921229;29;19923;-92
2021/01/13 13:44:33;;;;;;;;;;;;;;;9.52;45.36;101611.34;4914501;29;19926;-91
2021/01/13 13:46:59;;;;;;;;;;;;;;;10.01;44.68;101610.69;4925942;29;19919;-89
2021/01/13 13:49:28;;;;;;;;;;;;;;;9.70;45.04;101611.72;4924064;29;19961;-90
2021/01/13 13:51:53;;;;;;;;;;;;;;;10.53;43.68;101610.81;4910187;29;19926;-88
2021/01/13 13:54:18;;;;;;;;;;;;;;;10.68;43.45;101610.25;4905842;29;19920;-89
2021/01/13 13:56:44;;;;;;;;;;;;;;;10.72;43.40;101605.59;4909705;29;20025;-91
2021/01/13 13:59:11;;;;;;;;;;;;;;;11.35;42.84;101609.56;4910457;29;19919;-88
2021/01/13 14:01:36;;;;;;;;;;;;;;;10.83;43.48;101611.53;4924718;29;19962;-88
2021/01/13 14:04:01;;;;;;;;;;;;;;;10.03;43.93;101603.44;4926872;29;19919;-88
2021/01/13 14:06:27;;;;;;;;;;;;;;;10.69;43.04;101597.59;4911453;29;19923;-88
2021/01/13 14:08:53;;;;;;;;;;;;;;;10.25;43.64;101593.69;4909179;29;19915;-89
2021/01/13 14:11:18;;;;;;;;;;;;;;;10.60;43.38;101599.72;4924102;29;19919;-89
2021/01/13 14:13:43;;;;;;;;;;;;;;;9.86;44.67;101595.91;4922359;29;19927;-89
2021/01/13 14:16:08;;;;;;;;;;;;;;;10.13;44.25;101588.69;4907828;29;19919;-89
2021/01/13 14:18:34;;;;;;;;;;;;;;;10.64;43.19;101601.38;4906977;29;19974;-91
2021/01/13 14:20:59;;;;;;;;;;;;;;;10.86;42.56;101589.75;4910194;29;19930;-88
2021/01/13 14:23:24;;;;;;;;;;;;;;;11.02;43.17;101584.66;4926429;29;19928;-89
2021/01/13 14:25:50;;;;;;;;;;;;;;;10.89;43.16;101591.47;4910572;29;19983;-90
2021/01/13 14:28:15;;;;;;;;;;;;;;;11.03;43.17;101581.00;4896700;29;19934;-89
2021/01/13 14:30:40;;;;;;;;;;;;;;;10.90;43.06;101591.41;4911191;29;19967;-89
2021/01/13 14:33:06;;;;;;;;;;;;;;;10.83;43.52;101584.44;4912665;29;19923;-87
2021/01/13 14:35:31;;;;;;;;;;;;;;;10.89;43.46;101584.22;4915935;29;19918;-90
2021/01/13 14:37:56;;;;;;;;;;;;;;;10.55;44.60;101590.88;4931539;29;19923;-91
2021/01/13 14:40:33;;;;;;;;;;;;;;;10.86;43.74;101591.59;4930808;29;19925;-94
2021/01/13 14:43:00;;;;;;;;;;;;;;;10.19;45.41;101587.56;4937801;23;19962;-91
2021/01/13 14:45:26;;;;;;;;;;;;;;;10.29;44.95;101589.03;4931870;29;19919;-87
2021/01/13 14:47:56;;;;;;;;;;;;;;;10.92;44.39;101584.13;4927467;29;19994;-88
2021/01/13 14:50:21;;;;;;;;;;;;;;;10.58;44.71;101577.25;4929791;29;19919;-91
2021/01/13 14:52:46;;;;;;;;;;;;;;;10.34;45.38;101581.69;4929641;29;19926;-86
2021/01/13 14:55:12;;;;;;;;;;;;;;;10.71;45.00;101584.91;5130125;23;19931;-87
2021/01/13 14:57:39;;;;;;;;;;;;;;;10.75;44.92;101575.72;4928783;29;19919;-86
2021/01/13 15:00:16;;;;;;;;;;;;;;;11.08;44.53;101573.59;4913197;29;19930;-90
2021/01/13 15:02:42;;;;;;;;;;;;;;;10.77;45.28;101580.16;4909040;29;19982;-88
2021/01/13 15:05:07;;;;;;;;;;;;;;;10.22;46.56;101573.94;4928359;29;19922;-91
2021/01/13 15:07:32;;;;;;;;;;;;;;;10.75;45.84;101564.88;4926792;29;19919;-87
2021/01/13 15:09:58;;;;;;;;;;;;;;;10.51;46.55;101580.19;4926911;29;20348;-90
2021/01/13 15:12:23;;;;;;;;;;;;;;;10.47;46.80;101576.72;4911216;29;19930;-88
2021/01/13 15:14:49;;;;;;;;;;;;;;;10.52;46.73;101576.56;4912202;29;20385;-90
2021/01/13 15:17:20;;;;;;;;;;;;;;;10.71;46.59;101576.78;4914544;29;20010;-90
2021/01/13 15:19:45;;;;;;;;;;;;;;;10.77;46.43;101569.31;4927872;29;19919;-90
2021/01/13 15:22:11;;;;;;;;;;;;;;;10.50;47.59;101576.63;4910173;29;19919;-83
2021/01/13 15:24:37;;;;;;;;;;;;;;;11.06;46.12;101580.88;4925364;29;19941;-88
2021/01/13 15:27:03;;;;;;;;;;;;;;;10.71;47.37;101572.25;4909153;29;20004;-88
2021/01/13 15:29:34;;;;;;;;;;;;;;;10.37;47.80;101589.69;4909721;29;19923;-86
2021/01/13 15:32:04;;;;;;;;;;;;;;;10.63;47.71;101588.78;4926401;29;19919;-86
2021/01/13 15:34:30;;;;;;;;;;;;;;;10.92;46.89;101580.53;4909140;29;19919;-84
2021/01/13 15:36:56;;;;;;;;;;;;;;;10.14;48.66;101595.84;4908833;29;20301;-85
2021/01/13 15:39:23;;;;;;;;;;;;;;;10.62;47.89;101587.00;4908028;29;19926;-89
2021/01/13 15:41:48;;;;;;;;;;;;;;;10.28;48.76;101588.16;4908739;29;19919;-89
2021/01/13 15:44:14;;;;;;;;;;;;;;;10.48;48.10;101581.22;4908951;29;19930;-87
2021/01/13 15:46:43;;;;;;;;;;;;;;;11.04;47.19;101582.78;4909755;29;19970;-87
2021/01/13 15:49:08;;;;;;;;;;;;;;;10.37;48.42;101583.38;4909319;29;19915;-89
2021/01/13 15:51:50;;;;;;;;;;;;;;;10.61;48.53;101593.38;4896970;29;20015;-88
2021/01/13 15:54:15;;;;;;;;;;;;;;;10.61;48.88;101581.63;4918562;29;19915;-90
2021/01/13 15:56:40;;;;;;;;;;;;;;;10.56;49.11;101589.91;4913390;29;19928;-87
2021/01/13 15:59:06;;;;;;;;;;;;;;;10.63;48.82;101587.91;4919007;29;19971;-89
2021/01/13 16:01:34;;;;;;;;;;;;;;;10.67;49.20;101583.25;4892308;29;19944;-88
2021/01/13 16:04:00;;;;;;;;;;;;;;;10.92;48.89;101572.41;4905852;29;19954;-84
2021/01/13 16:06:26;;;;;;;;;;;;;;;10.69;49.21;101575.94;4910438;29;19919;-86
2021/01/13 16:08:51;;;;;;;;;;;;;;;10.74;49.04;101574.84;4912189;29;19995;-84
2021/01/13 16:11:24;;;;;;;;;;;;;;;10.68;49.45;101564.25;4899990;29;19931;-83
2021/01/13 16:13:55;;;;;;;;;;;;;;;9.99;51.32;101570.22;4893489;29;19923;-87
2021/01/13 16:16:21;;;;;;;;;;;;;;;10.56;49.98;101570.97;4901854;29;19955;-87
2021/01/13 16:18:46;;;;;;;;;;;;;;;10.53;50.15;101571.09;4902799;29;19923;-85
2021/01/13 16:21:17;;;;;;;;;;;;;;;10.59;50.30;101570.00;4905427;29;19919;-85
2021/01/13 16:23:42;;;;;;;;;;;;;;;10.81;49.87;101575.53;4907374;29;19941;-86
2021/01/13 16:26:08;;;;;;;;;;;;;;;10.25;51.58;101569.34;4921258;29;20284;-84
2021/01/13 16:28:35;;;;;;;;;;;;;;;10.34;51.02;101564.56;4909253;29;20613;-88
2021/01/13 16:31:00;;;;;;;;;;;;;;;10.82;49.67;101552.91;4913529;29;19923;-85
2021/01/13 16:33:39;;;;;;;;;;;;;;;10.98;49.62;101553.22;4903190;29;19920;-90
2021/01/13 16:36:06;;;;;;;;;;;;;;;10.58;50.55;101547.47;4886048;29;19998;-85
2021/01/13 16:38:34;;;;;;;;;;;;;;;10.57;50.69;101548.41;4885201;29;19920;-84
2021/01/13 16:40:59;;;;;;;;;;;;;;;10.50;50.56;101548.69;4884625;29;19915;-86
2021/01/13 16:43:28;;;;;;;;;;;;;;;10.07;52.43;101551.03;4884889;29;19966;-86
2021/01/13 16:45:54;;;;;;;;;;;;;;;10.37;51.56;101545.53;4901068;29;19919;-85
2021/01/13 16:48:25;;;;;;;;;;;;;;;10.85;50.76;101538.38;4884282;29;20289;-85
2021/01/13 16:50:50;;;;;;;;;;;;;;;10.16;51.97;101545.31;4900701;29;20010;-84
2021/01/13 16:53:16;;;;;;;;;;;;;;;10.22;52.50;101546.91;4898532;29;20326;-86
2021/01/13 16:55:41;;;;;;;;;;;;;;;10.52;51.51;101542.25;4882833;29;19927;-86
2021/01/13 16:58:11;;;;;;;;;;;;;;;10.29;52.21;101546.63;4908246;29;19931;-88
2021/01/13 17:00:37;;;;;;;;;;;;;;;10.55;51.64;101544.88;4912054;29;19927;-86
2021/01/13 17:03:03;;;;;;;;;;;;;;;10.69;51.51;101538.06;4913669;29;20370;-84
2021/01/13 17:05:28;;;;;;;;;;;;;;;10.58;51.49;101542.06;4907034;29;19967;-88
2021/01/13 17:07:58;;;;;;;;;;;;;;;10.28;52.20;101546.69;4904365;29;19919;-85
2021/01/13 17:10:23;;;;;;;;;;;;;;;10.82;51.11;101540.28;4919406;29;19923;-89
2021/01/13 17:12:49;;;;;;;;;;;;;;;10.75;51.29;101537.81;4903384;29;20567;-88
2021/01/13 17:15:16;;;;;;;;;;;;;;;10.05;53.14;101540.25;4903337;29;19986;-88
2021/01/13 17:17:42;;;;;;;;;;;;;;;10.68;51.90;101531.78;4903763;29;19919;-88
2021/01/13 17:20:12;;;;;;;;;;;;;;;10.12;53.42;101543.66;4902206;29;19986;-87
2021/01/13 17:22:38;;;;;;;;;;;;;;;10.39;52.61;101539.13;4903083;29;19919;-91
2021/01/13 17:25:05;;;;;;;;;;;;;;;10.03;54.29;101544.84;4912785;29;19938;-91
2021/01/13 17:27:30;;;;;;;;;;;;;;;9.66;56.28;101564.09;4895674;29;19955;-89
2021/01/13 17:29:59;;;;;;;;;;;;;;;9.81;56.31;101562.72;4909180;29;19920;-90
2021/01/13 17:32:25;;;;;;;;;;;;;;;9.55;58.08;101559.91;4913765;29;19927;-89
2021/01/13 17:34:50;;;;;;;;;;;;;;;9.08;59.14;101559.59;4919813;29;19923;-87
2021/01/13 17:37:16;;;;;;;;;;;;;;;9.82;56.95;101562.66;4920421;29;20271;-89
2021/01/13 17:39:41;;;;;;;;;;;;;;;9.94;56.36;101569.50;4903901;29;19925;-86
2021/01/13 17:42:07;;;;;;;;;;;;;;;9.68;57.23;101555.03;4903472;29;20262;-88
2021/01/13 17:44:32;;;;;;;;;;;;;;;9.55;58.23;101556.34;4903605;29;19919;-89
2021/01/13 17:46:59;;;;;;;;;;;;;;;9.47;57.84;101558.41;4903577;29;20010;-86
2021/01/13 17:49:24;;;;;;;;;;;;;;;10.37;56.09;101559.03;4920304;29;20033;-86
2021/01/13 17:51:50;;;;;;;;;;;;;;;9.96;56.19;101561.34;4901297;29;19989;-87
2021/01/13 17:54:17;;;;;;;;;;;;;;;10.50;54.23;101560.38;4903396;29;20358;-86
2021/01/13 17:56:43;;;;;;;;;;;;;;;10.28;54.64;101566.53;4898308;29;19931;-89
2021/01/13 17:59:08;;;;;;;;;;;;;;;10.41;54.74;101550.75;4914099;29;19994;-90
2021/01/13 18:01:34;;;;;;;;;;;;;;;10.21;55.19;101553.28;4902964;29;20440;-88
2021/01/13 18:04:01;;;;;;;;;;;;;;;9.92;56.45;101566.84;4902947;29;19919;-88
2021/01/13 18:06:26;;;;;;;;;;;;;;;9.93;56.65;101571.31;4922242;29;19919;-88
2021/01/13 18:09:36;;;;;;;;;;;;;;;9.73;57.55;101579.19;4903138;29;20003;-95
2021/01/13 18:11:56;;;;;;;;;;;;;;;10.03;57.13;101584.53;4917016;29;19923;-95
2021/01/13 18:14:21;;;;;;;;;;;;;;;10.18;56.74;101565.06;4923708;29;19923;-91
2021/01/13 18:20:15;;;;;;;;;;;;;;;10.44;55.73;101572.28;5110982;23;19933;-91
2021/01/13 18:22:41;;;;;;;;;;;;;;;10.87;54.59;101577.09;4944729;29;19946;-91
2021/01/13 18:25:07;;;;;;;;;;;;;;;10.87;54.73;101583.41;4941406;29;19989;-92
2021/01/13 18:27:33;;;;;;;;;;;;;;;10.54;55.79;101594.50;4942123;29;20640;-88
2021/01/13 18:29:58;;;;;;;;;;;;;;;10.65;55.40;101586.00;4941302;29;19926;-86
2021/01/13 18:32:24;;;;;;;;;;;;;;;10.95;55.04;101575.88;4940405;29;19918;-86
2021/01/13 18:34:49;;;;;;;;;;;;;;;11.08;54.42;101581.72;4941523;29;19973;-85
2021/01/13 18:37:14;;;;;;;;;;;;;;;10.82;55.23;101585.38;4943601;29;19923;-89
2021/01/13 18:39:40;;;;;;;;;;;;;;;10.41;56.61;101598.59;4940260;29;19919;-86
2021/01/13 18:42:06;;;;;;;;;;;;;;;10.33;56.93;101595.25;4941597;28;19944;-89
2021/01/13 18:44:32;;;;;;;;;;;;;;;10.62;55.85;101605.06;4950954;29;19929;-88
2021/01/13 18:46:57;;;;;;;;;;;;;;;10.64;55.98;101595.97;4935736;29;19922;-87
2021/01/13 18:49:22;;;;;;;;;;;;;;;10.68;55.76;101609.38;4941982;29;19970;-85
2021/01/13 18:51:47;;;;;;;;;;;;;;;10.33;56.38;101616.88;4950902;29;19925;-86
2021/01/13 18:54:13;;;;;;;;;;;;;;;10.77;55.18;101609.03;4929975;29;19919;-81
2021/01/13 18:56:38;;;;;;;;;;;;;;;10.22;56.24;101607.31;4949185;29;19940;-86
2021/01/13 18:59:04;;;;;;;;;;;;;;;10.71;55.17;101599.31;4926159;29;20017;-93
2021/01/13 19:01:30;;;;;;;;;;;;;;;10.87;54.24;101596.03;4924644;29;19929;-87
2021/01/13 19:03:59;;;;;;;;;;;;;;;10.63;55.07;101594.19;4928873;29;19934;-90
2021/01/13 19:06:25;;;;;;;;;;;;;;;11.11;53.95;101596.94;4935665;29;19919;-90
2021/01/13 19:08:51;;;;;;;;;;;;;;;11.25;53.12;101597.31;4924323;29;19926;-87
2021/01/13 19:11:35;;;;;;;;;;;;;;;11.11;53.10;101596.94;4941263;29;20668;-89
2021/01/13 19:14:01;;;;;;;;;;;;;;;11.79;50.92;101591.59;4934581;29;19974;-87
2021/01/13 19:16:47;;;;;;;;;;;;;;;11.22;53.09;101600.16;4930690;29;19946;-91
2021/01/13 19:19:12;;;;;;;;;;;;;;;11.01;52.92;101606.38;4942861;29;20285;-92
2021/01/13 19:21:41;;;;;;;;;;;;;;;11.00;53.10;101597.34;4939376;29;19971;-92
2021/01/13 19:26:58;;;;;;;;;;;;;;;11.18;51.84;101609.31;4904865;29;19923;-91
2021/01/13 19:29:23;;;;;;;;;;;;;;;11.37;52.20;101609.50;4922543;29;19926;-89
2021/01/13 19:31:49;;;;;;;;;;;;;;;10.37;54.45;101624.88;4930206;29;19918;-88
2021/01/13 19:34:18;;;;;;;;;;;;;;;11.03;53.05;101621.59;4941314;29;20063;-88
2021/01/13 19:36:46;;;;;;;;;;;;;;;10.91;52.69;101614.81;4939551;29;20373;-85
2021/01/13 19:39:20;;;;;;;;;;;;;;;11.09;51.73;101632.22;4937879;29;19918;-85
2021/01/13 19:41:46;;;;;;;;;;;;;;;10.66;52.38;101616.66;4939616;29;20026;-87
2021/01/13 19:44:13;;;;;;;;;;;;;;;10.80;51.44;101615.22;4939195;29;20009;-93
2021/01/13 19:46:42;;;;;;;;;;;;;;;11.17;51.00;101621.09;4939207;29;19923;-91
2021/01/13 19:49:08;;;;;;;;;;;;;;;10.49;52.90;101617.25;4940101;29;19927;-86
2021/01/13 19:51:38;;;;;;;;;;;;;;;11.34;50.63;101637.59;4956616;29;20054;-90
2021/01/13 19:54:03;;;;;;;;;;;;;;;11.43;49.99;101611.97;4938453;29;19949;-88
2021/01/13 19:56:31;;;;;;;;;;;;;;;11.53;49.41;101621.53;4939443;29;20388;-91
2021/01/13 19:58:59;;;;;;;;;;;;;;;11.52;49.42;101617.03;4943344;29;19919;-95
2021/01/13 20:01:25;;;;;;;;;;;;;;;11.33;49.53;101607.84;4940308;29;20348;-88
2021/01/13 20:03:55;;;;;;;;;;;;;;;11.47;49.55;101602.81;4937847;29;19922;-95
2021/01/13 20:06:21;;;;;;;;;;;;;;;11.22;49.73;101616.41;4940570;29;19925;-88
2021/01/13 20:08:46;;;;;;;;;;;;;;;11.61;48.78;101612.19;4939803;29;20456;-89
2021/01/13 20:11:11;;;;;;;;;;;;;;;11.72;48.70;101622.63;4954920;29;19925;-83
2021/01/13 20:13:36;;;;;;;;;;;;;;;11.59;48.51;101625.78;4939772;29;19919;-89
2021/01/13 20:16:16;;;;;;;;;;;;;;;11.45;49.13;101631.75;4940907;29;19945;-88
2021/01/13 20:18:46;;;;;;;;;;;;;;;11.57;48.83;101638.53;4965279;23;20069;-89
2021/01/13 20:21:11;;;;;;;;;;;;;;;11.42;49.19;101639.13;4952714;29;19978;-89
2021/01/13 20:23:40;;;;;;;;;;;;;;;11.17;49.42;101646.38;4947463;29;19919;-84
2021/01/13 20:26:11;;;;;;;;;;;;;;;10.67;50.94;101649.06;4946996;29;19923;-92
2021/01/13 20:28:37;;;;;;;;;;;;;;;11.68;49.33;101647.16;4957603;29;19926;-90
2021/01/13 20:31:14;;;;;;;;;;;;;;;11.38;49.63;101640.19;4939856;29;19922;-92
2021/01/13 20:33:40;;;;;;;;;;;;;;;11.41;49.67;101635.53;4939246;29;20382;-88
2021/01/13 20:36:26;;;;;;;;;;;;;;;11.54;49.05;101649.50;4939151;29;20059;-90
2021/01/13 20:38:54;;;;;;;;;;;;;;;11.10;50.55;101647.53;4921527;29;19947;-89
2021/01/13 20:41:19;;;;;;;;;;;;;;;11.10;50.30;101652.06;4930995;29;19922;-86
2021/01/13 20:43:47;;;;;;;;;;;;;;;11.40;49.86;101652.75;4946642;29;19961;-89
2021/01/13 20:46:13;;;;;;;;;;;;;;;11.59;49.49;101650.19;4927469;29;19919;-92
2021/01/13 20:48:38;;;;;;;;;;;;;;;11.98;48.49;101646.88;4938241;29;19950;-91
2021/01/13 20:51:04;;;;;;;;;;;;;;;11.71;49.10;101654.25;4920719;29;19989;-90
2021/01/13 20:53:31;;;;;;;;;;;;;;;11.02;50.76;101654.16;4920109;29;19918;-92
2021/01/13 20:55:57;;;;;;;;;;;;;;;11.00;50.68;101662.34;4919958;29;20403;-92
2021/01/13 20:58:33;;;;;;;;;;;;;;;11.58;49.74;101651.16;4920825;29;19978;-91
2021/01/13 21:01:01;;;;;;;;;;;;;;;11.98;48.64;101655.00;4930256;29;19926;-89
2021/01/13 21:03:26;;;;;;;;;;;;;;;12.29;47.65;101663.72;5049882;23;19935;-88
2021/01/13 21:05:55;;;;;;;;;;;;;;;12.37;47.74;101669.72;4926099;29;19931;-89
2021/01/13 21:08:21;;;;;;;;;;;;;;;12.22;49.16;101671.22;4998913;23;20407;-88
2021/01/13 21:10:58;;;;;;;;;;;;;;;12.40;49.01;101681.31;4951651;29;19923;-87
2021/01/13 21:13:31;;;;;;;;;;;;;;;11.93;50.34;101692.28;4950822;29;19932;-87